Time;durP1;ratioP1;P1;durP2;ratioP2;P2;SDS_P1;SDS_P2;PMS_P1;PMS_P2;Temp;Humidity;BMP_temperature;BMP_pressure;BME280_temperature;BME280_humidity;BME280_pressure;Samples;Min_cycle;Max_cycle;Signal;HPM_P1;HPM_P2
2023/09/24 00:01:13;;;;;;;4.60;2.00;;;;;;;14.79;73.61;100692.25;5083716;28;20219;-60
2023/09/24 00:03:41;;;;;;;3.53;2.27;;;;;;;14.72;73.47;100693.25;5091636;28;20205;-59
2023/09/24 00:06:10;;;;;;;2.60;2.23;;;;;;;14.68;73.91;100707.16;5090340;28;20200;-61
2023/09/24 00:08:38;;;;;;;3.40;2.47;;;;;;;14.68;73.78;100701.97;5081402;28;20948;-59
2023/09/24 00:11:07;;;;;;;3.27;2.50;;;;;;;14.65;74.26;100710.66;5090283;28;20679;-60
2023/09/24 00:13:38;;;;;;;3.57;2.40;;;;;;;14.67;74.04;100718.44;5091184;28;20196;-60
2023/09/24 00:16:06;;;;;;;3.37;2.27;;;;;;;14.64;74.10;100713.31;5091213;28;20411;-60
2023/09/24 00:18:35;;;;;;;4.67;2.97;;;;;;;14.66;74.13;100722.78;5091107;28;20197;-60
2023/09/24 00:21:04;;;;;;;3.40;2.60;;;;;;;14.67;73.82;100723.63;5091158;28;20648;-60
2023/09/24 00:23:32;;;;;;;2.60;2.40;;;;;;;14.68;73.98;100725.31;5086619;28;20664;-61
2023/09/24 00:26:00;;;;;;;2.57;2.37;;;;;;;14.66;73.83;100732.28;5083048;28;20282;-60
2023/09/24 00:28:28;;;;;;;2.50;2.30;;;;;;;14.63;73.55;100730.59;5088740;28;20295;-60
2023/09/24 00:30:58;;;;;;;2.83;2.60;;;;;;;14.58;73.99;100728.94;5091423;28;20681;-59
2023/09/24 00:33:26;;;;;;;3.75;2.50;;;;;;;14.58;73.87;100728.94;5089616;28;20209;-60
2023/09/24 00:35:55;;;;;;;3.20;2.50;;;;;;;14.55;73.82;100729.88;5083809;28;20224;-60
2023/09/24 00:38:23;;;;;;;2.27;2.17;;;;;;;14.54;73.96;100730.75;5090023;28;20211;-60
2023/09/24 00:40:51;;;;;;;3.03;2.47;;;;;;;14.54;74.04;100724.72;5087477;28;20307;-60
2023/09/24 00:43:27;;;;;;;3.60;2.33;;;;;;;14.55;73.72;100723.84;5090318;28;20205;-61
2023/09/24 00:45:58;;;;;;;4.77;2.43;;;;;;;14.54;73.83;100727.28;5091122;28;20225;-61
2023/09/24 00:48:28;;;;;;;3.17;2.43;;;;;;;14.51;73.64;100728.22;5091024;28;20601;-60
2023/09/24 00:50:58;;;;;;;6.00;2.57;;;;;;;14.54;74.21;100732.47;5090654;28;20216;-60
2023/09/24 00:53:27;;;;;;;5.57;2.53;;;;;;;14.53;74.43;100731.63;5090852;28;20782;-60
2023/09/24 00:55:56;;;;;;;3.27;2.60;;;;;;;14.56;73.61;100728.16;5088643;28;20662;-60
2023/09/24 00:58:25;;;;;;;2.90;2.60;;;;;;;14.60;73.71;100729.81;5088621;28;20282;-59
2023/09/24 01:00:54;;;;;;;2.47;2.13;;;;;;;14.59;73.54;100728.94;5089272;28;20216;-59
2023/09/24 01:03:25;;;;;;;3.97;2.60;;;;;;;14.56;73.71;100725.56;5083828;28;20209;-59
2023/09/24 01:05:54;;;;;;;3.67;2.07;;;;;;;14.55;73.41;100731.63;5087598;28;20675;-60
2023/09/24 01:08:25;;;;;;;2.10;1.90;;;;;;;14.55;73.77;100739.41;5089663;28;20554;-60
2023/09/24 01:10:53;;;;;;;3.30;2.00;;;;;;;14.53;73.55;100738.56;5085203;28;20251;-63
2023/09/24 01:13:23;;;;;;;3.67;2.30;;;;;;;14.54;73.38;100745.44;5086401;28;20230;-60
2023/09/24 01:15:51;;;;;;;3.07;2.47;;;;;;;14.50;73.57;100747.25;5101429;28;20208;-60
2023/09/24 01:18:20;;;;;;;3.13;2.40;;;;;;;14.47;73.67;100737.75;5093284;28;20223;-58
2023/09/24 01:20:49;;;;;;;2.87;2.40;;;;;;;14.50;73.59;100742.06;5094165;28;20561;-59
2023/09/24 01:23:19;;;;;;;4.00;2.47;;;;;;;14.53;73.68;100743.75;5093688;28;20257;-61
2023/09/24 01:25:47;;;;;;;2.20;2.00;;;;;;;14.55;73.27;100742.00;5093685;28;20819;-60
2023/09/24 01:28:15;;;;;;;1.93;1.80;;;;;;;14.50;73.41;100732.53;5090971;28;20589;-59
2023/09/24 01:30:44;;;;;;;2.53;2.10;;;;;;;14.49;73.25;100736.00;5083908;28;20261;-60
2023/09/24 01:33:12;;;;;;;2.20;2.00;;;;;;;14.47;73.60;100736.88;5092756;28;20287;-60
2023/09/24 01:35:40;;;;;;;3.25;2.67;;;;;;;14.47;73.42;100739.47;5089618;28;20238;-60
2023/09/24 01:38:08;;;;;;;2.33;1.93;;;;;;;14.46;73.63;100743.81;5091144;28;20656;-61
2023/09/24 01:40:38;;;;;;;1.77;1.67;;;;;;;14.45;73.38;100749.88;5093666;28;20616;-61
2023/09/24 01:43:07;;;;;;;2.70;2.27;;;;;;;14.44;73.32;100753.38;5083882;28;20729;-61
2023/09/24 01:45:38;;;;;;;2.67;2.10;;;;;;;14.42;73.17;100754.25;5092917;28;20196;-59
2023/09/24 01:48:07;;;;;;;2.60;2.17;;;;;;;14.43;73.60;100751.66;5090283;28;20232;-60
2023/09/24 01:50:36;;;;;;;2.53;2.20;;;;;;;14.45;73.31;100764.59;5085011;28;20242;-60
2023/09/24 01:53:05;;;;;;;2.40;2.03;;;;;;;14.43;73.36;100763.75;5088920;28;20205;-64
2023/09/24 01:55:33;;;;;;;4.47;2.33;;;;;;;14.43;73.50;100767.22;5091060;28;20614;-59
2023/09/24 01:58:03;;;;;;;4.00;2.33;;;;;;;14.42;72.96;100770.66;5091480;28;20208;-61
2023/09/24 02:00:31;;;;;;;2.97;2.27;;;;;;;14.38;73.41;100766.41;5092314;28;20244;-60
2023/09/24 02:03:05;;;;;;;2.23;2.03;;;;;;;14.40;73.25;100775.03;5092504;28;20209;-60
2023/09/24 02:05:34;;;;;;;2.53;2.27;;;;;;;14.38;73.31;100771.59;5092650;28;20253;-59
2023/09/24 02:08:06;;;;;;;4.20;2.10;;;;;;;14.37;73.46;100772.50;5085891;28;20643;-59
2023/09/24 02:10:35;;;;;;;2.50;2.30;;;;;;;14.38;73.26;100768.16;5092984;28;20593;-58
2023/09/24 02:13:04;;;;;;;2.50;2.30;;;;;;;14.39;73.19;100770.72;5079401;28;20197;-59
2023/09/24 02:15:32;;;;;;;2.13;1.93;;;;;;;14.36;72.88;100769.91;5092630;28;20729;-59
2023/09/24 02:18:04;;;;;;;3.23;2.30;;;;;;;14.36;73.04;100773.38;5090094;28;20204;-60
2023/09/24 02:20:33;;;;;;;3.33;2.03;;;;;;;14.36;73.26;100770.78;5092875;28;20704;-60
2023/09/24 02:23:03;;;;;;;2.93;2.10;;;;;;;14.36;72.97;100772.50;5090763;28;20660;-60
2023/09/24 02:25:33;;;;;;;2.57;2.27;;;;;;;14.34;73.13;100771.69;5090083;28;20319;-59
2023/09/24 02:28:01;;;;;;;2.13;2.00;;;;;;;14.32;73.08;100774.28;5086009;28;20675;-60
2023/09/24 02:30:32;;;;;;;3.23;2.20;;;;;;;14.33;72.90;100775.16;5092039;28;20204;-60
2023/09/24 02:33:02;;;;;;;3.00;2.43;;;;;;;14.36;72.98;100801.91;5093468;28;20266;-60
2023/09/24 02:35:30;;;;;;;3.20;2.17;;;;;;;14.38;72.78;100794.09;5092058;28;20284;-58
2023/09/24 02:37:59;;;;;;;2.63;1.93;;;;;;;14.39;72.89;100807.00;5082883;28;20204;-61
2023/09/24 02:40:27;;;;;;;3.53;2.20;;;;;;;14.40;73.07;100802.72;5087934;28;20208;-59
2023/09/24 02:42:57;;;;;;;2.87;2.30;;;;;;;14.38;72.58;100815.69;5092760;28;20207;-61
2023/09/24 02:45:27;;;;;;;2.70;2.20;;;;;;;14.36;72.56;100816.56;5083606;28;20292;-60
2023/09/24 02:47:57;;;;;;;4.17;2.57;;;;;;;14.34;72.85;100818.34;5092551;28;20200;-60
2023/09/24 02:50:28;;;;;;;2.47;2.17;;;;;;;14.30;72.50;100827.06;5092114;28;20236;-60
2023/09/24 02:52:59;;;;;;;2.87;2.03;;;;;;;14.27;72.76;100817.56;5092279;28;20279;-60
2023/09/24 02:55:29;;;;;;;3.43;2.20;;;;;;;14.25;73.23;100819.34;5084403;28;20211;-60
2023/09/24 02:57:57;;;;;;;2.60;2.40;;;;;;;14.25;73.18;100829.72;5087834;28;20311;-60
2023/09/24 03:00:35;;;;;;;3.57;1.97;;;;;;;14.24;73.18;100828.81;5091131;28;20254;-61
2023/09/24 03:03:05;;;;;;;2.20;2.00;;;;;;;14.25;73.06;100834.91;5091648;28;20196;-60
2023/09/24 03:05:34;;;;;;;2.90;2.40;;;;;;;14.27;73.30;100828.78;5090388;28;20197;-59
2023/09/24 03:08:04;;;;;;;3.50;2.20;;;;;;;14.29;73.21;100836.56;5087715;28;20197;-59
2023/09/24 03:10:32;;;;;;;2.77;2.40;;;;;;;14.31;72.58;100834.78;5091069;28;20212;-61
2023/09/24 03:13:02;;;;;;;4.95;2.10;;;;;;;14.31;72.97;100837.38;5085062;28;20655;-59
2023/09/24 03:15:30;;;;;;;2.30;1.97;;;;;;;14.31;72.90;100839.97;5090582;28;20204;-60
2023/09/24 03:17:58;;;;;;;3.00;2.10;;;;;;;14.29;73.01;100840.91;5087254;28;20209;-60
2023/09/24 03:20:29;;;;;;;2.70;2.50;;;;;;;14.30;72.87;100840.00;5083868;28;20192;-60
2023/09/24 03:23:02;;;;;;;3.43;2.40;;;;;;;14.27;73.18;100859.91;5091910;28;20219;-60
2023/09/24 03:25:30;;;;;;;2.73;2.40;;;;;;;14.24;73.11;100862.53;5087449;28;20215;-61
2023/09/24 03:28:00;;;;;;;5.57;2.50;;;;;;;14.24;73.50;100861.66;5087947;28;20728;-60
2023/09/24 03:30:28;;;;;;;3.87;2.80;;;;;;;14.29;73.38;100872.00;5086982;28;20672;-60
2023/09/24 03:32:57;;;;;;;3.43;2.30;;;;;;;14.29;73.09;100877.19;5090781;28;20254;-61
2023/09/24 03:35:28;;;;;;;2.40;2.20;;;;;;;14.31;72.93;100883.19;5086102;28;20216;-61
2023/09/24 03:37:57;;;;;;;4.03;2.63;;;;;;;14.33;73.04;100886.63;5086674;28;20262;-59
2023/09/24 03:40:26;;;;;;;3.67;2.40;;;;;;;14.30;73.16;100889.25;5090318;28;20663;-59
2023/09/24 03:42:55;;;;;;;2.97;2.40;;;;;;;14.27;72.89;100905.72;5091663;28;20208;-59
2023/09/24 03:45:24;;;;;;;2.43;2.23;;;;;;;14.27;73.26;100908.31;5091147;28;20378;-60
2023/09/24 03:47:53;;;;;;;3.90;2.60;;;;;;;14.28;73.81;100904.81;5087378;28;20737;-59
2023/09/24 03:50:22;;;;;;;3.30;2.30;;;;;;;14.28;73.29;100891.84;5079266;28;20196;-61
2023/09/24 03:52:52;;;;;;;4.23;2.37;;;;;;;14.29;73.51;100893.59;5086352;28;20250;-58
2023/09/24 03:55:20;;;;;;;3.30;2.40;;;;;;;14.27;72.92;100895.34;5082640;28;20279;-58
2023/09/24 03:57:49;;;;;;;4.80;2.93;;;;;;;14.28;73.24;100907.41;5086321;28;20672;-59
2023/09/24 04:00:18;;;;;;;3.25;2.40;;;;;;;14.25;73.30;100897.97;5091266;28;20247;-60
2023/09/24 04:02:48;;;;;;;3.87;2.87;;;;;;;14.23;73.68;100906.63;5079752;28;20245;-60
2023/09/24 04:05:19;;;;;;;2.80;2.33;;;;;;;14.21;73.94;100904.06;5090319;28;20213;-59
2023/09/24 04:07:49;;;;;;;2.97;2.67;;;;;;;14.19;73.29;100902.38;5090836;28;20235;-61
2023/09/24 04:10:20;;;;;;;2.97;2.43;;;;;;;14.17;73.66;100904.09;5090754;28;20220;-60
2023/09/24 04:12:50;;;;;;;3.13;2.70;;;;;;;14.14;73.41;100910.19;5086897;28;20476;-60
2023/09/24 04:15:20;;;;;;;2.95;2.65;;;;;;;14.16;73.57;100907.56;5088526;28;20208;-59
2023/09/24 04:17:50;;;;;;;2.67;2.35;;;;;;;14.15;73.65;100905.88;5090103;28;20196;-59
2023/09/24 04:20:19;;;;;;;2.73;2.43;;;;;;;14.12;73.53;100911.09;5082712;28;20216;-58
2023/09/24 04:22:49;;;;;;;4.30;2.58;;;;;;;14.11;73.65;100915.41;5090127;28;20269;-62
2023/09/24 04:25:21;;;;;;;3.00;2.70;;;;;;;14.08;74.20;100914.59;5090825;28;20254;-61
2023/09/24 04:27:50;;;;;;;3.20;2.67;;;;;;;14.07;73.74;100921.53;5088875;28;20226;-60
2023/09/24 04:30:18;;;;;;;3.37;2.83;;;;;;;14.06;74.12;100931.88;5089734;28;20651;-60
2023/09/24 04:32:48;;;;;;;2.97;2.30;;;;;;;14.07;74.14;100936.22;5085333;28;20198;-61
2023/09/24 04:35:19;;;;;;;2.95;2.58;;;;;;;14.04;74.35;100941.44;5084141;28;20205;-60
2023/09/24 04:37:47;;;;;;;2.73;2.47;;;;;;;14.04;74.26;100938.84;5089592;28;20232;-61
2023/09/24 04:40:15;;;;;;;2.57;2.37;;;;;;;14.02;74.43;100939.69;5086463;28;20651;-58
2023/09/24 04:42:46;;;;;;;3.03;2.40;;;;;;;14.04;73.98;100933.66;5090388;28;20262;-59
2023/09/24 04:45:16;;;;;;;2.83;2.33;;;;;;;14.04;74.08;100944.88;5089695;28;20301;-59
2023/09/24 04:47:44;;;;;;;3.90;2.40;;;;;;;14.07;74.32;100951.75;5090531;28;20208;-58
2023/09/24 04:50:13;;;;;;;2.95;2.63;;;;;;;14.07;73.97;100949.16;5090155;28;20732;-60
2023/09/24 04:52:47;;;;;;;3.40;2.57;;;;;;;14.05;74.24;100945.72;5083611;28;20192;-59
2023/09/24 04:55:15;;;;;;;4.27;2.70;;;;;;;14.05;74.46;100951.75;5086106;28;20209;-59
2023/09/24 04:57:45;;;;;;;2.63;2.43;;;;;;;14.01;73.87;100953.53;5081429;28;20223;-59
2023/09/24 05:00:15;;;;;;;3.27;2.70;;;;;;;14.02;73.92;100949.19;5088502;28;20631;-59
2023/09/24 05:02:44;;;;;;;4.13;2.63;;;;;;;14.04;74.01;100954.38;5083029;28;20222;-60
2023/09/24 05:05:12;;;;;;;3.20;2.60;;;;;;;14.04;74.00;100960.41;5089691;28;20193;-58
2023/09/24 05:07:40;;;;;;;3.92;2.60;;;;;;;14.07;73.83;100964.72;5088768;28;20204;-60
2023/09/24 05:10:09;;;;;;;3.10;2.67;;;;;;;14.08;73.64;100967.28;5086021;28;20209;-64
2023/09/24 05:12:37;;;;;;;3.10;2.33;;;;;;;14.09;73.53;100981.09;5084889;28;20208;-59
2023/09/24 05:15:07;;;;;;;3.67;3.07;;;;;;;14.07;73.76;100975.94;5089712;28;20205;-60
2023/09/24 05:17:35;;;;;;;2.90;2.53;;;;;;;14.09;73.56;100978.50;5090961;28;20200;-59
2023/09/24 05:20:05;;;;;;;4.57;2.77;;;;;;;14.12;73.88;100983.66;5075733;28;20714;-59
2023/09/24 05:22:33;;;;;;;3.63;2.73;;;;;;;14.11;73.41;100976.75;5088458;28;20219;-59
2023/09/24 05:25:01;;;;;;;3.77;2.87;;;;;;;14.12;73.42;100988.84;5088369;28;20568;-60
2023/09/24 05:27:32;;;;;;;3.33;2.85;;;;;;;14.16;74.08;100990.53;5084024;28;20698;-59
2023/09/24 05:30:00;;;;;;;3.23;2.93;;;;;;;14.17;73.85;100987.03;5084080;28;20237;-60
2023/09/24 05:32:30;;;;;;;4.03;3.30;;;;;;;14.20;73.32;100998.22;5089699;28;20606;-59
2023/09/24 05:34:59;;;;;;;5.07;2.93;;;;;;;14.20;73.54;101006.00;5087592;28;20257;-59
2023/09/24 05:37:27;;;;;;;3.00;2.80;;;;;;;14.23;73.57;101007.72;5087187;28;20240;-61
2023/09/24 05:39:56;;;;;;;2.97;2.67;;;;;;;14.21;73.72;101018.13;5087594;28;20204;-59
2023/09/24 05:42:24;;;;;;;3.20;2.78;;;;;;;14.22;73.33;101017.25;5088073;28;20307;-61
2023/09/24 05:44:52;;;;;;;4.85;3.05;;;;;;;14.26;73.34;101020.66;5085842;28;20201;-60
2023/09/24 05:47:20;;;;;;;5.40;3.05;;;;;;;14.27;72.93;101024.94;5088224;28;20224;-61
2023/09/24 05:49:51;;;;;;;3.73;2.90;;;;;;;14.27;73.48;101017.19;5088828;28;20731;-60
2023/09/24 05:52:18;;;;;;;4.13;2.93;;;;;;;14.27;73.66;101009.41;5087834;28;20228;-60
2023/09/24 05:54:46;;;;;;;2.70;2.47;;;;;;;14.29;73.47;101018.03;5089914;28;20205;-61
2023/09/24 05:57:14;;;;;;;3.50;3.00;;;;;;;14.28;73.50;101018.88;5090457;28;20523;-61
2023/09/24 05:59:42;;;;;;;3.40;2.77;;;;;;;14.35;73.67;101023.13;5088028;28;20655;-60
2023/09/24 06:02:11;;;;;;;3.10;2.70;;;;;;;14.42;72.66;101034.28;5089772;28;20635;-60
2023/09/24 06:04:38;;;;;;;3.90;2.87;;;;;;;14.45;72.83;101034.25;5090634;28;20697;-62
2023/09/24 06:07:08;;;;;;;4.47;3.63;;;;;;;14.50;72.78;101038.53;5092023;28;20227;-66
2023/09/24 06:09:36;;;;;;;3.43;2.87;;;;;;;14.56;72.65;101036.75;5086153;28;20196;-59
2023/09/24 06:12:04;;;;;;;4.83;2.87;;;;;;;14.60;72.51;101057.44;5080227;28;20198;-60
2023/09/24 06:14:32;;;;;;;3.38;2.92;;;;;;;14.69;72.13;101059.06;5090408;28;20242;-59
2023/09/24 06:17:00;;;;;;;3.00;2.70;;;;;;;14.74;71.88;101063.34;5089623;28;20212;-59
2023/09/24 06:19:28;;;;;;;3.33;3.03;;;;;;;14.80;71.85;101064.13;5089416;28;20192;-59
2023/09/24 06:21:56;;;;;;;3.20;2.90;;;;;;;14.84;71.41;101069.28;5083938;28;20196;-60
2023/09/24 06:24:26;;;;;;;5.40;3.10;;;;;;;14.88;71.06;101068.34;5092145;28;20213;-59
2023/09/24 06:26:54;;;;;;;4.70;3.10;;;;;;;14.93;70.81;101082.13;5088283;28;20196;-61
2023/09/24 06:29:22;;;;;;;3.33;3.03;;;;;;;14.95;70.66;101088.16;5090935;28;20205;-59
2023/09/24 06:31:52;;;;;;;3.37;3.03;;;;;;;15.00;70.91;101084.66;5083661;28;20205;-62
2023/09/24 06:34:20;;;;;;;5.30;3.03;;;;;;;15.04;70.77;101086.31;5091753;28;20228;-63
2023/09/24 06:36:48;;;;;;;3.77;3.20;;;;;;;15.07;70.58;101081.94;5085195;28;20243;-60
2023/09/24 06:39:16;;;;;;;3.47;3.00;;;;;;;15.10;70.39;101096.63;5090900;28;20205;-60
2023/09/24 06:41:45;;;;;;;3.00;2.75;;;;;;;15.13;70.13;101114.72;5090296;28;20250;-60
2023/09/24 06:44:14;;;;;;;4.77;3.13;;;;;;;15.21;70.46;101110.31;5090881;28;20219;-62
2023/09/24 06:46:42;;;;;;;3.73;3.23;;;;;;;15.33;70.14;101099.75;5085245;28;20205;-61
2023/09/24 06:49:11;;;;;;;4.93;3.17;;;;;;;15.49;69.87;101104.72;5087656;28;20204;-61
2023/09/24 06:51:38;;;;;;;3.37;3.07;;;;;;;15.65;69.17;101112.31;5081851;28;20236;-61
2023/09/24 06:54:07;;;;;;;4.15;3.17;;;;;;;15.73;68.35;101112.19;5096029;28;20204;-62
2023/09/24 06:56:35;;;;;;;4.22;3.17;;;;;;;16.05;68.37;101111.63;5092120;28;20207;-60
2023/09/24 06:59:09;;;;;;;3.33;3.03;;;;;;;16.46;67.17;101123.06;5092772;28;20205;-61
2023/09/24 07:01:37;;;;;;;4.00;3.05;;;;;;;16.58;65.27;101119.38;5085880;28;20290;-60
2023/09/24 07:04:05;;;;;;;3.05;2.65;;;;;;;16.42;64.89;101110.97;5083883;28;20220;-60
2023/09/24 07:06:34;;;;;;;3.25;2.78;;;;;;;16.30;65.86;101112.06;5092233;28;20234;-61
2023/09/24 07:09:02;;;;;;;2.97;2.78;;;;;;;16.22;66.21;101124.34;5089543;28;20201;-60
2023/09/24 07:11:32;;;;;;;3.45;2.53;;;;;;;16.10;66.11;101127.19;5082792;28;20213;-62
2023/09/24 07:14:01;;;;;;;2.50;2.30;;;;;;;16.00;66.73;101128.22;5078188;28;20193;-61
2023/09/24 07:16:31;;;;;;;3.25;2.83;;;;;;;15.97;66.96;101138.66;5090662;28;20213;-59
2023/09/24 07:18:59;;;;;;;2.67;2.28;;;;;;;15.98;67.15;101132.56;5086592;28;20197;-61
2023/09/24 07:21:29;;;;;;;3.17;2.30;;;;;;;16.07;67.61;101130.69;5083043;28;20636;-61
2023/09/24 07:24:04;;;;;;;3.00;2.70;;;;;;;16.19;67.40;101135.66;5092131;28;20207;-60
2023/09/24 07:26:32;;;;;;;2.97;2.78;;;;;;;16.35;66.35;101140.63;5092011;28;20291;-61
2023/09/24 07:29:01;;;;;;;2.60;2.40;;;;;;;16.41;66.25;101138.75;5086939;28;20560;-60
2023/09/24 07:31:31;;;;;;;3.25;2.65;;;;;;;16.52;65.97;101130.75;5092609;28;20269;-61
2023/09/24 07:34:01;;;;;;;3.10;2.40;;;;;;;16.63;65.45;101138.34;5091817;28;20197;-62
2023/09/24 07:36:30;;;;;;;5.80;2.35;;;;;;;16.75;65.35;101137.28;5078047;28;20237;-60
2023/09/24 07:39:11;;;;;;;3.50;2.38;;;;;;;16.84;64.83;101140.56;5082974;28;20285;-61
2023/09/24 07:41:40;;;;;;;3.33;2.63;;;;;;;16.81;64.23;101139.78;5093135;28;20204;-60
2023/09/24 07:44:08;;;;;;;3.92;2.50;;;;;;;16.73;65.20;101142.50;5084526;28;20354;-63
2023/09/24 07:46:37;;;;;;;2.75;2.22;;;;;;;16.72;65.42;101138.19;5086960;28;20207;-62
2023/09/24 07:49:05;;;;;;;8.77;2.50;;;;;;;16.77;65.57;101138.13;5098462;28;20647;-66
2023/09/24 07:51:34;;;;;;;2.58;2.33;;;;;;;16.86;65.08;101138.81;5091296;28;20196;-61
2023/09/24 07:54:03;;;;;;;4.85;2.60;;;;;;;17.00;65.33;101150.69;5091742;28;20671;-60
2023/09/24 07:56:31;;;;;;;7.25;2.50;;;;;;;17.29;65.10;101155.28;5082958;28;20197;-62
2023/09/24 07:59:00;;;;;;;3.65;2.15;;;;;;;17.76;64.27;101156.00;5088416;28;20201;-62
2023/09/24 08:01:28;;;;;;;3.25;2.08;;;;;;;17.99;61.95;101158.03;5086873;28;20250;-61
2023/09/24 08:03:58;;;;;;;2.40;2.20;;;;;;;18.10;61.41;101156.88;5089014;28;20278;-63
2023/09/24 08:06:28;;;;;;;2.50;2.30;;;;;;;18.16;60.74;101152.44;5082518;28;20228;-65
2023/09/24 08:08:57;;;;;;;2.90;1.80;;;;;;;18.10;60.76;101158.63;5077403;28;20208;-62
2023/09/24 08:11:44;;;;;;;2.15;1.90;;;;;;;18.20;61.40;101157.53;5088419;28;20208;-64
2023/09/24 08:14:13;;;;;;;2.30;2.08;;;;;;;18.69;60.72;101156.22;5088488;28;20197;-64
2023/09/24 08:16:41;;;;;;;2.30;1.75;;;;;;;19.07;58.83;101154.31;5088796;28;20200;-63
2023/09/24 08:19:10;;;;;;;3.67;1.75;;;;;;;19.20;57.29;101163.50;5081830;28;20197;-63
2023/09/24 08:21:38;;;;;;;2.60;1.92;;;;;;;19.23;57.03;101158.19;5088906;28;20189;-63
2023/09/24 08:24:08;;;;;;;3.78;1.70;;;;;;;19.23;57.33;101159.97;5090301;28;20659;-63
2023/09/24 08:26:36;;;;;;;3.80;1.95;;;;;;;19.18;56.98;101161.84;5078946;28;20591;-65
2023/09/24 08:29:06;;;;;;;2.83;1.92;;;;;;;19.16;57.20;101169.72;5089539;28;20204;-67
2023/09/24 08:31:35;;;;;;;2.78;1.95;;;;;;;19.18;57.00;101172.28;5091459;28;20695;-63
2023/09/24 08:34:03;;;;;;;1.85;1.70;;;;;;;19.14;57.32;101166.28;5087953;28;20227;-63
2023/09/24 08:36:33;;;;;;;2.53;1.77;;;;;;;19.13;57.20;101167.19;5073536;28;20719;-63
2023/09/24 08:39:03;;;;;;;2.28;2.00;;;;;;;19.05;57.34;101175.25;5086250;28;20205;-64
2023/09/24 08:41:34;;;;;;;2.47;1.70;;;;;;;18.93;57.16;101169.53;5077757;28;20259;-64
2023/09/24 08:44:06;;;;;;;4.25;1.95;;;;;;;18.87;58.16;101174.94;5087851;28;20229;-63
2023/09/24 08:46:35;;;;;;;2.13;1.58;;;;;;;18.90;58.00;101172.25;5076833;28;20651;-62
2023/09/24 08:49:04;;;;;;;4.43;2.10;;;;;;;18.85;57.81;101184.56;5080860;28;20213;-64
2023/09/24 08:51:34;;;;;;;2.22;1.88;;;;;;;18.84;57.88;101183.69;5084312;28;20213;-62
2023/09/24 08:54:02;;;;;;;2.42;1.60;;;;;;;18.91;58.43;101187.00;5088101;28;21191;-63
2023/09/24 08:56:30;;;;;;;1.83;1.55;;;;;;;19.00;58.16;101189.34;5090483;28;20674;-61
2023/09/24 08:58:59;;;;;;;1.75;1.65;;;;;;;19.05;58.18;101196.16;5077461;28;21475;-61
2023/09/24 09:01:27;;;;;;;3.00;1.90;;;;;;;18.99;57.57;101191.09;5090700;28;20200;-63
2023/09/24 09:03:55;;;;;;;3.35;1.80;;;;;;;18.93;57.99;101188.69;5089576;28;20201;-62
2023/09/24 09:06:35;;;;;;;2.83;1.60;;;;;;;18.90;58.41;101193.13;5090001;28;20223;-63
2023/09/24 09:09:03;;;;;;;3.30;1.50;;;;;;;18.94;57.91;101199.97;5084040;28;20199;-63
2023/09/24 09:11:39;;;;;;;1.70;1.35;;;;;;;18.91;57.99;101193.06;5090898;28;20230;-63
2023/09/24 09:14:08;;;;;;;2.20;1.40;;;;;;;18.92;58.41;101193.94;5086118;28;20265;-65
2023/09/24 09:16:55;;;;;;;3.08;1.75;;;;;;;18.99;58.14;101198.09;5090713;28;20221;-63
2023/09/24 09:19:23;;;;;;;3.80;2.03;;;;;;;19.05;57.65;101190.09;5090516;28;20370;-63
2023/09/24 09:21:53;;;;;;;4.20;1.65;;;;;;;19.11;57.54;101192.53;5087312;28;20196;-61
2023/09/24 09:24:23;;;;;;;3.40;1.50;;;;;;;19.20;57.49;101191.41;5090515;28;20262;-63
2023/09/24 09:26:55;;;;;;;1.40;1.30;;;;;;;19.27;57.20;101204.25;5090436;28;20693;-63
2023/09/24 09:29:24;;;;;;;1.95;1.40;;;;;;;19.30;56.08;101196.31;5079993;28;20266;-64
2023/09/24 09:31:54;;;;;;;2.10;1.55;;;;;;;19.24;56.08;101209.56;5086718;28;20318;-64
2023/09/24 09:34:22;;;;;;;2.63;1.42;;;;;;;19.07;56.52;101217.00;5086221;28;20208;-64
2023/09/24 09:36:50;;;;;;;1.67;1.10;;;;;;;18.97;56.88;101211.19;5080393;28;20240;-65
2023/09/24 09:39:20;;;;;;;2.83;1.10;;;;;;;18.97;56.93;101215.56;5091141;28;20667;-64
2023/09/24 09:41:52;;;;;;;3.95;1.33;;;;;;;18.95;56.56;101219.97;5088347;28;20204;-64
2023/09/24 09:44:26;;;;;;;1.48;1.38;;;;;;;18.99;56.34;101230.28;5085465;28;20204;-64
2023/09/24 09:47:00;;;;;;;1.40;1.13;;;;;;;18.99;56.53;101222.44;5094488;28;20610;-63
2023/09/24 09:49:34;;;;;;;3.38;1.10;;;;;;;19.09;56.53;101230.91;5094414;28;20204;-66
2023/09/24 09:52:02;;;;;;;1.80;1.05;;;;;;;19.14;55.95;101229.00;5093278;28;20196;-65
2023/09/24 09:54:35;;;;;;;1.88;1.20;;;;;;;19.19;55.35;101231.50;5090404;28;20672;-66
2023/09/24 09:57:04;;;;;;;1.00;0.60;;;;;;;19.22;55.43;101227.06;5081440;28;20204;-65
2023/09/24 09:59:34;;;;;;;1.73;0.90;;;;;;;19.25;54.99;101232.16;5091331;28;20197;-65
2023/09/24 10:02:03;;;;;;;1.48;1.00;;;;;;;19.21;54.82;101233.16;5093808;28;20197;-65
2023/09/24 10:04:32;;;;;;;1.30;0.70;;;;;;;19.17;54.58;101228.06;5093920;28;20549;-65
2023/09/24 10:07:03;;;;;;;1.92;1.00;;;;;;;19.15;54.56;101225.50;5086953;28;20981;-64
2023/09/24 10:09:35;;;;;;;2.55;1.20;;;;;;;19.22;54.92;101232.28;5094339;28;20212;-63
2023/09/24 10:12:07;;;;;;;1.90;0.70;;;;;;;19.38;54.10;101243.13;5088445;28;20224;-61
2023/09/24 10:14:37;;;;;;;1.00;0.82;;;;;;;19.60;53.68;101238.13;5087335;28;20197;-62
2023/09/24 10:17:20;;;;;;;2.13;0.82;;;;;;;19.90;52.42;101241.59;5087326;28;20193;-62
2023/09/24 10:19:49;;;;;;;1.58;0.80;;;;;;;20.18;52.63;101241.59;5090663;28;20236;-64
2023/09/24 10:22:25;;;;;;;2.08;1.55;;;;;;;20.54;51.72;101245.69;5093480;28;20266;-66
2023/09/24 10:24:54;;;;;;;0.80;0.80;;;;;;;20.69;50.21;101246.03;5093506;28;20547;-63
2023/09/24 10:27:55;;;;;;;0.60;0.60;;;;;;;20.81;50.33;101244.75;5078957;28;20729;-61
2023/09/24 10:31:05;;;;;;;1.70;0.90;;;;;;;20.83;48.74;101261.25;5090772;28;20290;-63
2023/09/24 10:33:56;;;;;;;0.70;0.70;;;;;;;20.82;49.29;101266.56;5084190;28;20762;-61
2023/09/24 10:36:28;;;;;;;1.48;0.98;;;;;;;20.98;49.39;101270.34;5091678;28;20266;-63
2023/09/24 10:39:04;;;;;;;1.08;0.80;;;;;;;21.07;49.08;101272.66;5087780;28;20205;-61
2023/09/24 10:41:36;;;;;;;1.33;0.90;;;;;;;21.15;48.77;101270.59;5093419;28;20655;-62
2023/09/24 10:44:24;;;;;;;0.80;0.80;;;;;;;21.26;48.56;101272.00;5093505;28;20201;-62
2023/09/24 10:46:52;;;;;;;2.58;1.10;;;;;;;21.38;48.51;101274.19;5092565;28;20247;-61
2023/09/24 10:49:25;;;;;;;2.42;1.00;;;;;;;21.60;48.31;101261.97;5089329;28;20205;-61
2023/09/24 10:51:58;;;;;;;1.00;0.90;;;;;;;21.80;47.44;101263.84;5093141;28;20651;-61
2023/09/24 10:54:26;;;;;;;2.40;0.70;;;;;;;21.83;46.59;101262.88;5093038;28;20205;-62
2023/09/24 10:56:57;;;;;;;2.70;1.00;;;;;;;21.80;46.46;101253.38;5087381;28;20953;-61
2023/09/24 10:59:33;;;;;;;2.45;0.90;;;;;;;21.74;46.48;101256.22;5092235;28;20205;-63
2023/09/24 11:02:15;;;;;;;0.90;0.68;;;;;;;21.79;46.81;101256.03;5087988;28;20209;-61
2023/09/24 11:04:51;;;;;;;0.75;0.70;;;;;;;21.84;46.64;101257.56;5090328;28;20334;-61
2023/09/24 11:07:19;;;;;;;4.50;0.90;;;;;;;21.88;46.47;101253.06;5085078;28;20205;-62
2023/09/24 11:09:49;;;;;;;2.80;0.98;;;;;;;21.94;46.19;101252.78;5092673;28;20201;-61
2023/09/24 11:12:19;;;;;;;1.33;0.80;;;;;;;21.94;45.79;101252.78;5092418;28;20288;-59
2023/09/24 11:14:54;;;;;;;1.17;0.60;;;;;;;21.95;45.66;101249.28;5088661;28;20716;-60
2023/09/24 11:17:42;;;;;;;0.82;0.80;;;;;;;22.00;45.68;101252.56;5082461;28;20599;-60
2023/09/24 11:20:10;;;;;;;2.60;1.00;;;;;;;22.05;45.69;101244.50;5092105;28;20201;-59
2023/09/24 11:22:38;;;;;;;1.08;0.60;;;;;;;21.97;44.38;101247.44;5092366;28;20295;-61
2023/09/24 11:25:07;;;;;;;0.57;0.57;;;;;;;21.91;44.15;101238.06;5087201;28;20639;-62
2023/09/24 11:27:45;;;;;;;1.33;0.73;;;;;;;21.94;44.39;101243.19;5086245;28;20280;-61
2023/09/24 11:30:15;;;;;;;1.10;0.75;;;;;;;21.73;44.21;101249.25;5086793;28;20220;-61
2023/09/24 11:32:44;;;;;;;0.40;0.40;;;;;;;21.44;44.78;101245.97;5091801;28;20196;-62
2023/09/24 11:35:13;;;;;;;0.93;0.85;;;;;;;21.39;45.42;101239.19;5083013;28;20196;-61
2023/09/24 11:37:50;;;;;;;1.33;0.88;;;;;;;21.42;45.46;101249.56;5084676;28;20716;-61